sensor_id;sensor_type;location;lat;lon;timestamp;temperature;humidity
4755;DHT22;2391;47.212;7.542;2022-10-23T00:00:59;16.60;99.10
4755;DHT22;2391;47.212;7.542;2022-10-23T00:03:25;16.60;99.20
4755;DHT22;2391;47.212;7.542;2022-10-23T00:05:53;16.60;99.10
4755;DHT22;2391;47.212;7.542;2022-10-23T00:08:19;16.60;99.00
4755;DHT22;2391;47.212;7.542;2022-10-23T00:10:45;16.50;99.00
4755;DHT22;2391;47.212;7.542;2022-10-23T00:13:14;16.50;99.20
4755;DHT22;2391;47.212;7.542;2022-10-23T00:15:46;16.50;99.30
4755;DHT22;2391;47.212;7.542;2022-10-23T00:18:12;16.50;99.30
4755;DHT22;2391;47.212;7.542;2022-10-23T00:20:44;16.50;99.30
4755;DHT22;2391;47.212;7.542;2022-10-23T00:23:10;16.50;99.20
4755;DHT22;2391;47.212;7.542;2022-10-23T00:25:40;16.50;99.20
4755;DHT22;2391;47.212;7.542;2022-10-23T00:28:05;16.50;99.20
4755;DHT22;2391;47.212;7.542;2022-10-23T00:30:39;16.40;99.10
4755;DHT22;2391;47.212;7.542;2022-10-23T00:33:05;16.40;99.20
4755;DHT22;2391;47.212;7.542;2022-10-23T00:35:40;16.40;99.20
4755;DHT22;2391;47.212;7.542;2022-10-23T00:38:14;16.40;99.20
4755;DHT22;2391;47.212;7.542;2022-10-23T00:40:44;16.40;99.20
4755;DHT22;2391;47.212;7.542;2022-10-23T00:43:22;16.40;99.20
4755;DHT22;2391;47.212;7.542;2022-10-23T00:45:50;16.40;99.10
4755;DHT22;2391;47.212;7.542;2022-10-23T00:48:21;16.40;99.10
4755;DHT22;2391;47.212;7.542;2022-10-23T00:50:54;16.40;99.00
4755;DHT22;2391;47.212;7.542;2022-10-23T00:53:22;16.40;99.00
4755;DHT22;2391;47.212;7.542;2022-10-23T00:55:50;16.30;99.00
4755;DHT22;2391;47.212;7.542;2022-10-23T00:58:19;16.30;99.10
4755;DHT22;2391;47.212;7.542;2022-10-23T01:00:48;16.20;99.10
4755;DHT22;2391;47.212;7.542;2022-10-23T01:03:22;16.20;99.40
4755;DHT22;2391;47.212;7.542;2022-10-23T01:06:09;16.20;99.10
4755;DHT22;2391;47.212;7.542;2022-10-23T01:08:34;16.20;99.30
4755;DHT22;2391;47.212;7.542;2022-10-23T01:11:11;16.20;98.90
4755;DHT22;2391;47.212;7.542;2022-10-23T01:14:05;16.20;98.90
4755;DHT22;2391;47.212;7.542;2022-10-23T01:24:48;16.10;98.90
4755;DHT22;2391;47.212;7.542;2022-10-23T01:27:21;16.00;99.00
4755;DHT22;2391;47.212;7.542;2022-10-23T01:32:33;16.00;99.10
4755;DHT22;2391;47.212;7.542;2022-10-23T01:35:20;16.00;99.10
4755;DHT22;2391;47.212;7.542;2022-10-23T01:43:12;15.90;99.20
4755;DHT22;2391;47.212;7.542;2022-10-23T01:45:50;15.80;99.20
4755;DHT22;2391;47.212;7.542;2022-10-23T01:48:14;15.90;99.10
4755;DHT22;2391;47.212;7.542;2022-10-23T01:50:45;15.90;99.00
4755;DHT22;2391;47.212;7.542;2022-10-23T01:53:13;15.80;98.80
4755;DHT22;2391;47.212;7.542;2022-10-23T01:55:42;15.80;98.80
4755;DHT22;2391;47.212;7.542;2022-10-23T01:58:09;15.80;98.90
4755;DHT22;2391;47.212;7.542;2022-10-23T02:00:38;15.80;98.80
4755;DHT22;2391;47.212;7.542;2022-10-23T02:03:06;15.80;98.80
4755;DHT22;2391;47.212;7.542;2022-10-23T02:05:35;15.80;98.70
4755;DHT22;2391;47.212;7.542;2022-10-23T02:08:04;15.70;98.70
4755;DHT22;2391;47.212;7.542;2022-10-23T02:10:48;15.70;98.90
4755;DHT22;2391;47.212;7.542;2022-10-23T02:13:12;15.60;99.00
4755;DHT22;2391;47.212;7.542;2022-10-23T02:15:56;15.70;99.00
4755;DHT22;2391;47.212;7.542;2022-10-23T02:18:39;15.70;98.70
4755;DHT22;2391;47.212;7.542;2022-10-23T02:21:10;15.60;98.70
4755;DHT22;2391;47.212;7.542;2022-10-23T02:23:51;15.60;98.60
4755;DHT22;2391;47.212;7.542;2022-10-23T02:26:35;15.60;98.80
4755;DHT22;2391;47.212;7.542;2022-10-23T02:29:17;15.50;98.90
4755;DHT22;2391;47.212;7.542;2022-10-23T02:31:39;15.50;99.00
4755;DHT22;2391;47.212;7.542;2022-10-23T02:34:07;15.40;99.00
4755;DHT22;2391;47.212;7.542;2022-10-23T02:36:33;15.50;99.20
4755;DHT22;2391;47.212;7.542;2022-10-23T02:38:59;15.50;99.10
4755;DHT22;2391;47.212;7.542;2022-10-23T02:41:34;15.50;99.00
4755;DHT22;2391;47.212;7.542;2022-10-23T02:49:30;15.20;99.40
4755;DHT22;2391;47.212;7.542;2022-10-23T02:57:03;15.10;99.60
4755;DHT22;2391;47.212;7.542;2022-10-23T02:59:50;15.20;99.60
4755;DHT22;2391;47.212;7.542;2022-10-23T03:02:29;15.10;99.40
4755;DHT22;2391;47.212;7.542;2022-10-23T03:04:54;15.00;99.40
4755;DHT22;2391;47.212;7.542;2022-10-23T03:07:25;15.00;99.50
4755;DHT22;2391;47.212;7.542;2022-10-23T03:09:51;15.00;99.50
4755;DHT22;2391;47.212;7.542;2022-10-23T03:12:17;15.00;99.60
4755;DHT22;2391;47.212;7.542;2022-10-23T03:14:45;15.00;99.60
4755;DHT22;2391;47.212;7.542;2022-10-23T03:17:11;15.00;99.60
4755;DHT22;2391;47.212;7.542;2022-10-23T03:19:39;15.10;99.70
4755;DHT22;2391;47.212;7.542;2022-10-23T03:22:08;15.10;99.70
4755;DHT22;2391;47.212;7.542;2022-10-23T03:24:36;15.10;99.70
4755;DHT22;2391;47.212;7.542;2022-10-23T03:27:02;15.10;99.60
4755;DHT22;2391;47.212;7.542;2022-10-23T03:29:28;15.00;99.70
4755;DHT22;2391;47.212;7.542;2022-10-23T03:31:54;15.00;99.90
4755;DHT22;2391;47.212;7.542;2022-10-23T03:34:20;15.00;99.90
4755;DHT22;2391;47.212;7.542;2022-10-23T03:36:47;15.00;99.90
4755;DHT22;2391;47.212;7.542;2022-10-23T03:39:15;15.10;99.90
4755;DHT22;2391;47.212;7.542;2022-10-23T03:41:41;15.10;99.80
4755;DHT22;2391;47.212;7.542;2022-10-23T03:44:09;15.10;99.70
4755;DHT22;2391;47.212;7.542;2022-10-23T03:46:37;15.10;99.40
4755;DHT22;2391;47.212;7.542;2022-10-23T03:49:04;15.10;99.50
4755;DHT22;2391;47.212;7.542;2022-10-23T03:51:30;15.10;99.60
4755;DHT22;2391;47.212;7.542;2022-10-23T03:53:56;15.10;99.40
4755;DHT22;2391;47.212;7.542;2022-10-23T03:56:22;15.00;99.30
4755;DHT22;2391;47.212;7.542;2022-10-23T03:58:48;15.00;99.30
4755;DHT22;2391;47.212;7.542;2022-10-23T04:01:14;15.00;99.30
4755;DHT22;2391;47.212;7.542;2022-10-23T04:03:40;14.90;99.30
4755;DHT22;2391;47.212;7.542;2022-10-23T04:06:08;14.90;99.30
4755;DHT22;2391;47.212;7.542;2022-10-23T04:08:36;14.90;99.50
4755;DHT22;2391;47.212;7.542;2022-10-23T04:11:02;14.90;99.50
4755;DHT22;2391;47.212;7.542;2022-10-23T04:13:28;14.90;99.50
4755;DHT22;2391;47.212;7.542;2022-10-23T04:15:55;14.90;99.60
4755;DHT22;2391;47.212;7.542;2022-10-23T04:18:21;14.90;99.50
4755;DHT22;2391;47.212;7.542;2022-10-23T04:20:47;14.80;99.40
4755;DHT22;2391;47.212;7.542;2022-10-23T04:23:15;14.70;99.70
4755;DHT22;2391;47.212;7.542;2022-10-23T04:25:41;14.70;99.50
4755;DHT22;2391;47.212;7.542;2022-10-23T04:28:07;14.60;99.60
4755;DHT22;2391;47.212;7.542;2022-10-23T04:30:35;14.60;99.70
4755;DHT22;2391;47.212;7.542;2022-10-23T04:33:01;14.60;99.80
4755;DHT22;2391;47.212;7.542;2022-10-23T04:35:27;14.60;99.70
4755;DHT22;2391;47.212;7.542;2022-10-23T04:37:53;14.50;99.80
4755;DHT22;2391;47.212;7.542;2022-10-23T04:40:19;14.60;99.70
4755;DHT22;2391;47.212;7.542;2022-10-23T04:42:45;14.60;99.60
4755;DHT22;2391;47.212;7.542;2022-10-23T04:45:11;14.60;99.60
4755;DHT22;2391;47.212;7.542;2022-10-23T04:47:37;14.50;99.60
4755;DHT22;2391;47.212;7.542;2022-10-23T04:50:04;14.50;99.70
4755;DHT22;2391;47.212;7.542;2022-10-23T04:52:30;14.50;99.60
4755;DHT22;2391;47.212;7.542;2022-10-23T04:54:56;14.50;99.70
4755;DHT22;2391;47.212;7.542;2022-10-23T04:57:22;14.50;99.80
4755;DHT22;2391;47.212;7.542;2022-10-23T04:59:48;14.50;99.50
4755;DHT22;2391;47.212;7.542;2022-10-23T05:02:14;14.40;99.60
4755;DHT22;2391;47.212;7.542;2022-10-23T05:04:40;14.30;99.60
4755;DHT22;2391;47.212;7.542;2022-10-23T05:07:06;14.20;99.70
4755;DHT22;2391;47.212;7.542;2022-10-23T05:09:33;14.20;99.80
4755;DHT22;2391;47.212;7.542;2022-10-23T05:11:58;14.10;99.90
4755;DHT22;2391;47.212;7.542;2022-10-23T05:14:25;14.10;99.90
4755;DHT22;2391;47.212;7.542;2022-10-23T05:16:56;14.00;99.90
4755;DHT22;2391;47.212;7.542;2022-10-23T05:19:28;14.10;99.90
4755;DHT22;2391;47.212;7.542;2022-10-23T05:21:56;14.10;99.90
4755;DHT22;2391;47.212;7.542;2022-10-23T05:24:25;14.10;99.90
4755;DHT22;2391;47.212;7.542;2022-10-23T05:26:51;14.20;99.90
4755;DHT22;2391;47.212;7.542;2022-10-23T05:29:19;14.20;99.90
4755;DHT22;2391;47.212;7.542;2022-10-23T05:31:49;14.20;99.90
4755;DHT22;2391;47.212;7.542;2022-10-23T05:34:17;14.20;99.90
4755;DHT22;2391;47.212;7.542;2022-10-23T05:36:45;14.20;99.90
4755;DHT22;2391;47.212;7.542;2022-10-23T05:39:12;14.20;99.90
4755;DHT22;2391;47.212;7.542;2022-10-23T05:41:38;14.20;99.90
4755;DHT22;2391;47.212;7.542;2022-10-23T05:44:04;14.20;99.90
4755;DHT22;2391;47.212;7.542;2022-10-23T05:46:30;14.30;99.90
4755;DHT22;2391;47.212;7.542;2022-10-23T05:48:56;14.30;99.90
4755;DHT22;2391;47.212;7.542;2022-10-23T05:51:22;14.40;99.90
4755;DHT22;2391;47.212;7.542;2022-10-23T05:53:49;14.40;99.90
4755;DHT22;2391;47.212;7.542;2022-10-23T05:56:15;14.40;99.90
4755;DHT22;2391;47.212;7.542;2022-10-23T05:58:44;14.50;99.90
4755;DHT22;2391;47.212;7.542;2022-10-23T06:01:12;14.60;99.90
4755;DHT22;2391;47.212;7.542;2022-10-23T06:03:39;14.60;99.90
4755;DHT22;2391;47.212;7.542;2022-10-23T06:06:06;14.60;99.90
4755;DHT22;2391;47.212;7.542;2022-10-23T06:08:33;14.60;99.90
4755;DHT22;2391;47.212;7.542;2022-10-23T06:11:07;14.60;99.90
4755;DHT22;2391;47.212;7.542;2022-10-23T06:13:34;14.70;99.90
4755;DHT22;2391;47.212;7.542;2022-10-23T06:16:13;14.70;99.90
4755;DHT22;2391;47.212;7.542;2022-10-23T06:18:41;14.70;99.90
4755;DHT22;2391;47.212;7.542;2022-10-23T06:21:08;14.70;99.90
4755;DHT22;2391;47.212;7.542;2022-10-23T06:23:36;14.70;99.90
4755;DHT22;2391;47.212;7.542;2022-10-23T06:26:05;14.80;99.90
4755;DHT22;2391;47.212;7.542;2022-10-23T06:28:36;14.80;99.90
4755;DHT22;2391;47.212;7.542;2022-10-23T06:31:05;14.80;99.90
4755;DHT22;2391;47.212;7.542;2022-10-23T06:33:33;14.80;99.90
4755;DHT22;2391;47.212;7.542;2022-10-23T06:35:59;14.80;99.90
4755;DHT22;2391;47.212;7.542;2022-10-23T06:38:30;14.80;99.90
4755;DHT22;2391;47.212;7.542;2022-10-23T06:40:58;14.80;99.90
4755;DHT22;2391;47.212;7.542;2022-10-23T06:43:26;14.80;99.90
4755;DHT22;2391;47.212;7.542;2022-10-23T06:45:52;14.80;99.90
4755;DHT22;2391;47.212;7.542;2022-10-23T06:48:18;14.70;99.90
4755;DHT22;2391;47.212;7.542;2022-10-23T06:50:46;14.60;99.90
4755;DHT22;2391;47.212;7.542;2022-10-23T06:53:12;14.50;99.90
4755;DHT22;2391;47.212;7.542;2022-10-23T06:55:38;14.50;99.90
4755;DHT22;2391;47.212;7.542;2022-10-23T06:58:06;14.50;99.90
4755;DHT22;2391;47.212;7.542;2022-10-23T07:00:35;14.50;99.90
4755;DHT22;2391;47.212;7.542;2022-10-23T07:03:04;14.50;99.90
4755;DHT22;2391;47.212;7.542;2022-10-23T07:05:31;14.50;99.90
4755;DHT22;2391;47.212;7.542;2022-10-23T07:07:57;14.50;99.90
4755;DHT22;2391;47.212;7.542;2022-10-23T07:10:23;14.50;99.90
4755;DHT22;2391;47.212;7.542;2022-10-23T07:12:49;14.60;99.90
4755;DHT22;2391;47.212;7.542;2022-10-23T07:15:20;14.60;99.90
4755;DHT22;2391;47.212;7.542;2022-10-23T07:17:47;14.60;99.90
4755;DHT22;2391;47.212;7.542;2022-10-23T07:20:15;14.60;99.90
4755;DHT22;2391;47.212;7.542;2022-10-23T07:22:43;14.60;99.90
4755;DHT22;2391;47.212;7.542;2022-10-23T07:25:11;14.60;99.90
4755;DHT22;2391;47.212;7.542;2022-10-23T07:27:37;14.60;99.90
4755;DHT22;2391;47.212;7.542;2022-10-23T07:30:03;14.60;99.90
4755;DHT22;2391;47.212;7.542;2022-10-23T07:32:30;14.70;99.90
4755;DHT22;2391;47.212;7.542;2022-10-23T07:34:57;14.70;99.90
4755;DHT22;2391;47.212;7.542;2022-10-23T07:37:28;14.80;99.90
4755;DHT22;2391;47.212;7.542;2022-10-23T07:39:56;14.80;99.90
4755;DHT22;2391;47.212;7.542;2022-10-23T07:42:19;14.80;99.90
4755;DHT22;2391;47.212;7.542;2022-10-23T07:44:52;14.80;99.90
4755;DHT22;2391;47.212;7.542;2022-10-23T07:47:15;14.70;99.90
4755;DHT22;2391;47.212;7.542;2022-10-23T07:49:43;14.70;99.90
4755;DHT22;2391;47.212;7.542;2022-10-23T07:52:09;14.60;99.90
4755;DHT22;2391;47.212;7.542;2022-10-23T07:54:35;14.70;99.90
4755;DHT22;2391;47.212;7.542;2022-10-23T07:57:01;14.70;99.90
4755;DHT22;2391;47.212;7.542;2022-10-23T07:59:27;14.70;99.90
4755;DHT22;2391;47.212;7.542;2022-10-23T08:01:53;14.70;99.90
4755;DHT22;2391;47.212;7.542;2022-10-23T08:04:25;14.70;99.90
4755;DHT22;2391;47.212;7.542;2022-10-23T08:06:53;14.70;99.90
4755;DHT22;2391;47.212;7.542;2022-10-23T08:09:21;14.70;99.90
4755;DHT22;2391;47.212;7.542;2022-10-23T08:11:52;14.60;99.90
4755;DHT22;2391;47.212;7.542;2022-10-23T08:14:15;14.60;99.90
4755;DHT22;2391;47.212;7.542;2022-10-23T08:16:41;14.70;99.90
4755;DHT22;2391;47.212;7.542;2022-10-23T08:19:09;14.60;99.90
4755;DHT22;2391;47.212;7.542;2022-10-23T08:21:35;14.50;99.90
4755;DHT22;2391;47.212;7.542;2022-10-23T08:24:01;14.50;99.90
4755;DHT22;2391;47.212;7.542;2022-10-23T08:26:29;14.40;99.90
4755;DHT22;2391;47.212;7.542;2022-10-23T08:28:58;14.50;99.90
4755;DHT22;2391;47.212;7.542;2022-10-23T08:31:25;14.60;99.90
4755;DHT22;2391;47.212;7.542;2022-10-23T08:33:51;14.70;99.90
4755;DHT22;2391;47.212;7.542;2022-10-23T08:36:24;14.80;99.90
4755;DHT22;2391;47.212;7.542;2022-10-23T08:38:49;14.80;99.90
4755;DHT22;2391;47.212;7.542;2022-10-23T08:41:30;14.90;99.90
4755;DHT22;2391;47.212;7.542;2022-10-23T08:46:34;14.90;99.90
4755;DHT22;2391;47.212;7.542;2022-10-23T08:51:39;15.00;99.90
4755;DHT22;2391;47.212;7.542;2022-10-23T08:54:26;15.00;99.90
4755;DHT22;2391;47.212;7.542;2022-10-23T08:56:59;15.00;99.90
4755;DHT22;2391;47.212;7.542;2022-10-23T09:02:09;15.10;99.90
4755;DHT22;2391;47.212;7.542;2022-10-23T09:04:34;15.10;99.90
4755;DHT22;2391;47.212;7.542;2022-10-23T09:13:03;14.90;99.90
4755;DHT22;2391;47.212;7.542;2022-10-23T09:15:30;14.90;99.90
4755;DHT22;2391;47.212;7.542;2022-10-23T09:18:06;14.90;99.90
4755;DHT22;2391;47.212;7.542;2022-10-23T09:20:33;14.90;99.90
4755;DHT22;2391;47.212;7.542;2022-10-23T09:23:02;15.00;99.90
4755;DHT22;2391;47.212;7.542;2022-10-23T09:25:33;15.10;99.90
4755;DHT22;2391;47.212;7.542;2022-10-23T09:28:00;15.10;99.90
4755;DHT22;2391;47.212;7.542;2022-10-23T09:33:16;15.00;99.90
4755;DHT22;2391;47.212;7.542;2022-10-23T09:38:27;15.00;99.90
4755;DHT22;2391;47.212;7.542;2022-10-23T09:40:57;15.10;99.90
4755;DHT22;2391;47.212;7.542;2022-10-23T09:43:28;15.10;99.90
4755;DHT22;2391;47.212;7.542;2022-10-23T09:46:04;15.10;99.90
4755;DHT22;2391;47.212;7.542;2022-10-23T09:48:29;15.20;99.90
4755;DHT22;2391;47.212;7.542;2022-10-23T09:51:00;15.10;99.90
4755;DHT22;2391;47.212;7.542;2022-10-23T09:53:37;15.10;99.90
4755;DHT22;2391;47.212;7.542;2022-10-23T09:56:06;15.10;99.90
4755;DHT22;2391;47.212;7.542;2022-10-23T09:58:36;15.10;99.90
4755;DHT22;2391;47.212;7.542;2022-10-23T10:01:05;15.20;99.90
4755;DHT22;2391;47.212;7.542;2022-10-23T10:03:33;15.30;99.90
4755;DHT22;2391;47.212;7.542;2022-10-23T10:06:17;15.40;99.90
4755;DHT22;2391;47.212;7.542;2022-10-23T10:08:47;15.40;99.90
4755;DHT22;2391;47.212;7.542;2022-10-23T10:16:43;15.50;99.90
4755;DHT22;2391;47.212;7.542;2022-10-23T10:21:55;15.50;99.90
4755;DHT22;2391;47.212;7.542;2022-10-23T10:24:28;15.60;99.90
4755;DHT22;2391;47.212;7.542;2022-10-23T10:27:14;15.60;99.90
4755;DHT22;2391;47.212;7.542;2022-10-23T10:46:42;15.50;99.90
4755;DHT22;2391;47.212;7.542;2022-10-23T10:52:15;15.70;99.90
4755;DHT22;2391;47.212;7.542;2022-10-23T11:00:18;16.00;99.90
4755;DHT22;2391;47.212;7.542;2022-10-23T11:05:33;16.10;99.90
4755;DHT22;2391;47.212;7.542;2022-10-23T11:10:51;16.20;99.90
4755;DHT22;2391;47.212;7.542;2022-10-23T11:16:00;16.30;99.90
4755;DHT22;2391;47.212;7.542;2022-10-23T11:18:36;16.30;99.90
4755;DHT22;2391;47.212;7.542;2022-10-23T11:24:06;16.40;99.90
4755;DHT22;2391;47.212;7.542;2022-10-23T11:35:30;16.50;99.90
4755;DHT22;2391;47.212;7.542;2022-10-23T11:40:50;16.50;99.90
4755;DHT22;2391;47.212;7.542;2022-10-23T11:49:18;16.70;99.90
4755;DHT22;2391;47.212;7.542;2022-10-23T11:52:04;16.80;99.90
4755;DHT22;2391;47.212;7.542;2022-10-23T11:54:45;16.80;99.90
4755;DHT22;2391;47.212;7.542;2022-10-23T11:59:49;17.00;99.90
4755;DHT22;2391;47.212;7.542;2022-10-23T12:07:55;17.20;99.90
4755;DHT22;2391;47.212;7.542;2022-10-23T12:18:24;17.30;99.90
4755;DHT22;2391;47.212;7.542;2022-10-23T12:21:01;17.20;99.90
4755;DHT22;2391;47.212;7.542;2022-10-23T12:29:37;17.40;99.90
4755;DHT22;2391;47.212;7.542;2022-10-23T12:32:38;17.50;99.90
4755;DHT22;2391;47.212;7.542;2022-10-23T12:35:20;17.50;99.90
4755;DHT22;2391;47.212;7.542;2022-10-23T12:44:03;17.60;99.90
4755;DHT22;2391;47.212;7.542;2022-10-23T12:49:48;17.60;99.90
4755;DHT22;2391;47.212;7.542;2022-10-23T12:52:22;17.60;99.90
4755;DHT22;2391;47.212;7.542;2022-10-23T12:55:28;17.60;99.90
4755;DHT22;2391;47.212;7.542;2022-10-23T12:57:58;17.60;99.90
4755;DHT22;2391;47.212;7.542;2022-10-23T13:00:18;17.70;99.90
4755;DHT22;2391;47.212;7.542;2022-10-23T13:02:55;17.70;99.90
4755;DHT22;2391;47.212;7.542;2022-10-23T13:08:21;17.80;99.90
4755;DHT22;2391;47.212;7.542;2022-10-23T13:11:12;17.90;99.90
4755;DHT22;2391;47.212;7.542;2022-10-23T13:16:31;18.00;99.90
4755;DHT22;2391;47.212;7.542;2022-10-23T13:19:21;18.10;99.90
4755;DHT22;2391;47.212;7.542;2022-10-23T13:21:44;18.20;99.90
4755;DHT22;2391;47.212;7.542;2022-10-23T13:24:20;18.20;99.90
4755;DHT22;2391;47.212;7.542;2022-10-23T13:27:32;18.20;99.90
4755;DHT22;2391;47.212;7.542;2022-10-23T13:32:45;18.40;99.90
4755;DHT22;2391;47.212;7.542;2022-10-23T13:35:38;18.40;99.90
4755;DHT22;2391;47.212;7.542;2022-10-23T13:38:20;18.50;99.90
4755;DHT22;2391;47.212;7.542;2022-10-23T13:43:43;18.50;99.90
4755;DHT22;2391;47.212;7.542;2022-10-23T13:46:30;18.60;99.90
4755;DHT22;2391;47.212;7.542;2022-10-23T13:49:25;18.70;99.90
4755;DHT22;2391;47.212;7.542;2022-10-23T13:52:03;18.80;99.90
4755;DHT22;2391;47.212;7.542;2022-10-23T13:54:33;18.80;99.90
4755;DHT22;2391;47.212;7.542;2022-10-23T13:57:08;18.80;99.90
4755;DHT22;2391;47.212;7.542;2022-10-23T13:59:43;18.80;99.80
4755;DHT22;2391;47.212;7.542;2022-10-23T14:07:48;18.90;99.30
4755;DHT22;2391;47.212;7.542;2022-10-23T14:10:10;18.90;99.50
4755;DHT22;2391;47.212;7.542;2022-10-23T14:15:40;18.90;99.50
4755;DHT22;2391;47.212;7.542;2022-10-23T14:18:26;18.90;99.50
4755;DHT22;2391;47.212;7.542;2022-10-23T14:26:25;19.00;99.30
4755;DHT22;2391;47.212;7.542;2022-10-23T14:32:00;18.90;99.30
4755;DHT22;2391;47.212;7.542;2022-10-23T14:34:48;18.90;99.30
4755;DHT22;2391;47.212;7.542;2022-10-23T14:37:18;18.80;99.50
4755;DHT22;2391;47.212;7.542;2022-10-23T14:47:57;18.90;99.90
4755;DHT22;2391;47.212;7.542;2022-10-23T14:54:07;18.90;99.90
4755;DHT22;2391;47.212;7.542;2022-10-23T15:02:21;19.00;99.90
4755;DHT22;2391;47.212;7.542;2022-10-23T15:04:58;19.00;99.90
4755;DHT22;2391;47.212;7.542;2022-10-23T15:13:34;19.10;99.90
4755;DHT22;2391;47.212;7.542;2022-10-23T15:39:56;19.10;99.30
4755;DHT22;2391;47.212;7.542;2022-10-23T15:48:12;19.10;99.50
4755;DHT22;2391;47.212;7.542;2022-10-23T15:53:49;19.10;99.60
4755;DHT22;2391;47.212;7.542;2022-10-23T15:59:17;19.00;99.70
4755;DHT22;2391;47.212;7.542;2022-10-23T16:01:51;19.10;99.90
4755;DHT22;2391;47.212;7.542;2022-10-23T16:04:37;19.10;99.90
4755;DHT22;2391;47.212;7.542;2022-10-23T16:10:09;19.10;99.90
4755;DHT22;2391;47.212;7.542;2022-10-23T16:12:39;19.10;99.90
4755;DHT22;2391;47.212;7.542;2022-10-23T16:15:25;19.10;99.90
4755;DHT22;2391;47.212;7.542;2022-10-23T16:21:05;19.10;99.90
4755;DHT22;2391;47.212;7.542;2022-10-23T16:23:45;19.10;99.90
4755;DHT22;2391;47.212;7.542;2022-10-23T16:26:18;19.10;99.90
4755;DHT22;2391;47.212;7.542;2022-10-23T16:28:56;19.00;99.90
4755;DHT22;2391;47.212;7.542;2022-10-23T16:34:39;18.90;99.90
4755;DHT22;2391;47.212;7.542;2022-10-23T16:37:20;18.90;99.90
4755;DHT22;2391;47.212;7.542;2022-10-23T16:42:30;18.90;99.90
4755;DHT22;2391;47.212;7.542;2022-10-23T16:44:58;18.90;99.90
4755;DHT22;2391;47.212;7.542;2022-10-23T16:47:26;18.90;99.90
4755;DHT22;2391;47.212;7.542;2022-10-23T16:49:54;18.90;99.90
4755;DHT22;2391;47.212;7.542;2022-10-23T16:52:20;18.90;99.90
4755;DHT22;2391;47.212;7.542;2022-10-23T16:54:46;18.90;99.90
4755;DHT22;2391;47.212;7.542;2022-10-23T16:57:12;18.90;99.90
4755;DHT22;2391;47.212;7.542;2022-10-23T16:59:38;18.90;99.90
4755;DHT22;2391;47.212;7.542;2022-10-23T17:02:04;18.90;99.90
4755;DHT22;2391;47.212;7.542;2022-10-23T17:04:30;18.90;99.90
4755;DHT22;2391;47.212;7.542;2022-10-23T17:07:04;18.90;99.90
4755;DHT22;2391;47.212;7.542;2022-10-23T17:09:46;18.90;99.90
4755;DHT22;2391;47.212;7.542;2022-10-23T17:12:00;19.00;99.90
4755;DHT22;2391;47.212;7.542;2022-10-23T17:14:26;19.00;99.90
4755;DHT22;2391;47.212;7.542;2022-10-23T17:16:59;19.00;99.90
4755;DHT22;2391;47.212;7.542;2022-10-23T17:19:28;19.10;99.90
4755;DHT22;2391;47.212;7.542;2022-10-23T17:22:00;19.00;99.90
4755;DHT22;2391;47.212;7.542;2022-10-23T17:24:23;19.00;99.90
4755;DHT22;2391;47.212;7.542;2022-10-23T17:26:51;18.90;99.90
4755;DHT22;2391;47.212;7.542;2022-10-23T17:29:23;18.90;99.90
4755;DHT22;2391;47.212;7.542;2022-10-23T17:31:48;18.90;99.90
4755;DHT22;2391;47.212;7.542;2022-10-23T17:34:18;18.90;99.90
4755;DHT22;2391;47.212;7.542;2022-10-23T17:36:48;19.00;99.90
4755;DHT22;2391;47.212;7.542;2022-10-23T17:39:17;19.00;99.90
4755;DHT22;2391;47.212;7.542;2022-10-23T17:41:45;18.90;99.90
4755;DHT22;2391;47.212;7.542;2022-10-23T17:44:12;18.90;99.90
4755;DHT22;2391;47.212;7.542;2022-10-23T17:46:38;18.80;99.90
4755;DHT22;2391;47.212;7.542;2022-10-23T17:49:04;18.70;99.90
4755;DHT22;2391;47.212;7.542;2022-10-23T17:51:32;18.60;99.90
4755;DHT22;2391;47.212;7.542;2022-10-23T17:54:00;18.40;99.90
4755;DHT22;2391;47.212;7.542;2022-10-23T17:56:28;18.30;99.90
4755;DHT22;2391;47.212;7.542;2022-10-23T17:59:04;18.20;99.90
4755;DHT22;2391;47.212;7.542;2022-10-23T18:01:28;18.20;99.90
4755;DHT22;2391;47.212;7.542;2022-10-23T18:03:56;18.20;99.90
4755;DHT22;2391;47.212;7.542;2022-10-23T18:06:27;18.30;99.90
4755;DHT22;2391;47.212;7.542;2022-10-23T18:08:53;18.30;99.90
4755;DHT22;2391;47.212;7.542;2022-10-23T18:11:25;18.40;99.90
4755;DHT22;2391;47.212;7.542;2022-10-23T18:13:52;18.40;99.90
4755;DHT22;2391;47.212;7.542;2022-10-23T18:16:19;18.50;99.90
4755;DHT22;2391;47.212;7.542;2022-10-23T18:18:45;18.50;99.90
4755;DHT22;2391;47.212;7.542;2022-10-23T18:21:18;18.50;99.90
4755;DHT22;2391;47.212;7.542;2022-10-23T18:23:45;18.50;99.90
4755;DHT22;2391;47.212;7.542;2022-10-23T18:26:14;18.60;99.90
4755;DHT22;2391;47.212;7.542;2022-10-23T18:28:47;18.60;99.90
4755;DHT22;2391;47.212;7.542;2022-10-23T18:31:11;18.60;99.90
4755;DHT22;2391;47.212;7.542;2022-10-23T18:33:37;18.60;99.90
4755;DHT22;2391;47.212;7.542;2022-10-23T18:36:27;18.60;99.90
4755;DHT22;2391;47.212;7.542;2022-10-23T18:38:33;18.60;99.90
4755;DHT22;2391;47.212;7.542;2022-10-23T18:41:00;18.60;99.90
4755;DHT22;2391;47.212;7.542;2022-10-23T18:43:26;18.60;99.90
4755;DHT22;2391;47.212;7.542;2022-10-23T18:45:52;18.50;99.90
4755;DHT22;2391;47.212;7.542;2022-10-23T18:48:18;18.50;99.90
4755;DHT22;2391;47.212;7.542;2022-10-23T18:50:44;18.50;99.90
4755;DHT22;2391;47.212;7.542;2022-10-23T18:53:10;18.40;99.90
4755;DHT22;2391;47.212;7.542;2022-10-23T18:55:43;18.40;99.90
4755;DHT22;2391;47.212;7.542;2022-10-23T18:58:05;18.30;99.90
4755;DHT22;2391;47.212;7.542;2022-10-23T19:00:31;18.30;99.90
4755;DHT22;2391;47.212;7.542;2022-10-23T19:02:57;18.30;99.90
4755;DHT22;2391;47.212;7.542;2022-10-23T19:05:23;18.30;99.90
4755;DHT22;2391;47.212;7.542;2022-10-23T19:07:49;18.30;99.90
4755;DHT22;2391;47.212;7.542;2022-10-23T19:10:15;18.30;99.90
4755;DHT22;2391;47.212;7.542;2022-10-23T19:12:44;18.40;99.90
4755;DHT22;2391;47.212;7.542;2022-10-23T19:15:10;18.40;99.90
4755;DHT22;2391;47.212;7.542;2022-10-23T19:17:36;18.40;99.90
4755;DHT22;2391;47.212;7.542;2022-10-23T19:20:05;18.30;99.90
4755;DHT22;2391;47.212;7.542;2022-10-23T19:22:33;18.40;99.90
4755;DHT22;2391;47.212;7.542;2022-10-23T19:25:03;18.30;99.90
4755;DHT22;2391;47.212;7.542;2022-10-23T19:27:30;18.30;99.90
4755;DHT22;2391;47.212;7.542;2022-10-23T19:29:57;18.20;99.90
4755;DHT22;2391;47.212;7.542;2022-10-23T19:32:25;18.20;99.90
4755;DHT22;2391;47.212;7.542;2022-10-23T19:34:51;18.30;99.90
4755;DHT22;2391;47.212;7.542;2022-10-23T19:37:17;18.40;99.90
4755;DHT22;2391;47.212;7.542;2022-10-23T19:39:43;18.40;99.90
4755;DHT22;2391;47.212;7.542;2022-10-23T19:42:09;18.40;99.90
4755;DHT22;2391;47.212;7.542;2022-10-23T19:44:35;18.40;99.90
4755;DHT22;2391;47.212;7.542;2022-10-23T19:47:01;18.40;99.90
4755;DHT22;2391;47.212;7.542;2022-10-23T19:49:27;18.40;99.90
4755;DHT22;2391;47.212;7.542;2022-10-23T19:51:53;18.40;99.90
4755;DHT22;2391;47.212;7.542;2022-10-23T19:54:20;18.40;99.90
4755;DHT22;2391;47.212;7.542;2022-10-23T19:56:46;18.40;99.90
4755;DHT22;2391;47.212;7.542;2022-10-23T19:59:12;18.50;99.90
4755;DHT22;2391;47.212;7.542;2022-10-23T20:01:39;18.50;99.90
4755;DHT22;2391;47.212;7.542;2022-10-23T20:04:05;18.60;99.90
4755;DHT22;2391;47.212;7.542;2022-10-23T20:06:32;18.60;99.90
4755;DHT22;2391;47.212;7.542;2022-10-23T20:09:05;18.60;99.90
4755;DHT22;2391;47.212;7.542;2022-10-23T20:11:33;18.50;99.90
4755;DHT22;2391;47.212;7.542;2022-10-23T20:14:00;18.50;99.90
4755;DHT22;2391;47.212;7.542;2022-10-23T20:16:32;18.50;99.90
4755;DHT22;2391;47.212;7.542;2022-10-23T20:19:00;18.50;99.90